Time;durP1;ratioP1;P1;durP2;ratioP2;P2;SDS_P1;SDS_P2;PMS_P1;PMS_P2;Temp;Humidity;BMP_temperature;BMP_pressure;BME280_temperature;BME280_humidity;BME280_pressure;Samples;Min_cycle;Max_cycle;Signal;HPM_P1;HPM_P2
2022/08/11 00:01:24;;;;;;;11.57;9.70;;;17.60;99.90;;;;;;4913486;29;20075;-69
2022/08/11 00:03:54;;;;;;;9.07;8.18;;;17.60;99.90;;;;;;4929998;29;20058;-69
2022/08/11 00:06:30;;;;;;;10.85;8.35;;;17.60;99.90;;;;;;4930345;29;20122;-69
2022/08/11 00:08:56;;;;;;;10.98;8.77;;;17.50;99.90;;;;;;4914924;29;20051;-69
2022/08/11 00:11:34;;;;;;;10.40;9.23;;;17.50;99.90;;;;;;4933641;29;20728;-69
2022/08/11 00:14:01;;;;;;;14.80;9.70;;;17.50;99.90;;;;;;4930323;29;20087;-69
2022/08/11 00:16:27;;;;;;;10.90;9.32;;;17.40;99.90;;;;;;4930296;29;20079;-69
2022/08/11 00:18:56;;;;;;;12.30;9.23;;;17.40;99.90;;;;;;4930027;29;20086;-69
2022/08/11 00:21:23;;;;;;;9.73;8.82;;;17.40;99.90;;;;;;4937884;29;20083;-69
2022/08/11 00:23:55;;;;;;;12.93;9.32;;;17.30;99.90;;;;;;4897771;29;20063;-69
2022/08/11 00:26:23;;;;;;;11.88;10.63;;;17.30;99.90;;;;;;4912504;29;20489;-69
2022/08/11 00:28:50;;;;;;;13.33;10.10;;;17.20;99.90;;;;;;4930314;29;20067;-69
2022/08/11 00:31:32;;;;;;;13.27;9.43;;;17.20;99.90;;;;;;4915117;29;20103;-69
2022/08/11 00:34:00;;;;;;;10.88;9.75;;;17.20;99.90;;;;;;4930346;29;20527;-69
2022/08/11 00:36:51;;;;;;;14.68;10.75;;;17.10;99.90;;;;;;4918060;29;20725;-69
2022/08/11 00:39:20;;;;;;;11.35;10.15;;;17.10;99.90;;;;;;4913290;29;20078;-69
2022/08/11 00:42:02;;;;;;;12.23;10.50;;;17.00;99.90;;;;;;4912659;29;20048;-69
2022/08/11 00:44:49;;;;;;;15.23;9.63;;;17.00;99.90;;;;;;4913275;29;20062;-69
2022/08/11 00:47:18;;;;;;;13.45;10.27;;;17.00;99.90;;;;;;4930565;29;20044;-69
2022/08/11 00:50:21;;;;;;;14.60;12.02;;;16.90;99.90;;;;;;4913170;29;20119;-69
2022/08/11 00:53:09;;;;;;;13.02;10.85;;;16.90;99.90;;;;;;4928965;29;20047;-69
2022/08/11 00:56:12;;;;;;;13.02;10.43;;;16.80;99.90;;;;;;4909056;29;20059;-69
2022/08/11 00:59:03;;;;;;;12.10;10.98;;;16.80;99.90;;;;;;4929970;29;20123;-69
2022/08/11 01:01:56;;;;;;;13.85;9.90;;;16.80;99.90;;;;;;4925621;29;20044;-69
2022/08/11 01:04:28;;;;;;;12.25;10.63;;;16.80;99.90;;;;;;4929382;29;20054;-69
2022/08/11 01:07:29;;;;;;;12.40;10.57;;;16.80;99.90;;;;;;4920532;29;20075;-69
2022/08/11 01:09:57;;;;;;;17.00;13.90;;;16.70;99.90;;;;;;4893982;29;20051;-69
2022/08/11 01:12:44;;;;;;;11.82;10.38;;;16.70;99.90;;;;;;4929254;29;20047;-69
2022/08/11 01:15:39;;;;;;;13.85;11.13;;;16.70;99.90;;;;;;4929767;29;20775;-69
2022/08/11 01:18:34;;;;;;;11.57;10.38;;;16.70;99.90;;;;;;4930710;29;20042;-69
2022/08/11 01:21:24;;;;;;;13.35;11.07;;;16.70;99.90;;;;;;4933582;29;20856;-69
2022/08/11 01:24:40;;;;;;;14.68;11.57;;;16.60;99.90;;;;;;4933853;29;20883;-69
2022/08/11 01:27:50;;;;;;;14.70;11.43;;;16.60;99.90;;;;;;4925011;29;20043;-70
2022/08/11 01:30:53;;;;;;;12.63;11.30;;;16.60;99.90;;;;;;4921511;29;20060;-70
2022/08/11 01:33:24;;;;;;;13.75;12.15;;;16.60;99.90;;;;;;4932538;29;20040;-69
2022/08/11 01:36:05;;;;;;;13.45;11.98;;;16.60;99.90;;;;;;4913580;29;20130;-70
2022/08/11 01:38:59;;;;;;;13.13;11.77;;;16.60;99.90;;;;;;4919897;29;20052;-70
2022/08/11 01:44:36;;;;;;;14.50;12.43;;;16.60;99.90;;;;;;4914780;29;20058;-70
2022/08/11 01:44:45;;;;;;;13.02;11.73;;;16.60;99.90;;;;;;4915577;29;20131;-70
2022/08/11 01:50:17;;;;;;;14.43;11.23;;;16.60;99.90;;;;;;4916862;29;20051;-70
2022/08/11 01:53:01;;;;;;;13.10;11.55;;;16.60;99.90;;;;;;4921363;29;20074;-70
2022/08/11 01:55:32;;;;;;;13.88;12.27;;;16.50;99.90;;;;;;4916982;29;20090;-70
2022/08/11 01:58:22;;;;;;;13.60;12.20;;;16.50;99.90;;;;;;4937604;29;20047;-70
2022/08/11 02:01:22;;;;;;;13.68;11.48;;;16.50;99.90;;;;;;4920936;29;20281;-70
2022/08/11 02:04:16;;;;;;;16.08;14.27;;;16.50;99.90;;;;;;4914830;29;20047;-70
2022/08/11 02:06:57;;;;;;;15.70;13.63;;;16.40;99.90;;;;;;4927059;29;20585;-70
2022/08/11 02:09:44;;;;;;;14.48;12.95;;;16.40;99.90;;;;;;4927517;29;20039;-69
2022/08/11 02:12:56;;;;;;;17.52;12.52;;;16.40;99.90;;;;;;4917127;29;20040;-70
2022/08/11 02:15:41;;;;;;;22.73;14.70;;;16.40;99.90;;;;;;4872256;29;20104;-70
2022/08/11 02:18:22;;;;;;;16.15;14.38;;;16.30;99.90;;;;;;4907194;29;20561;-70
2022/08/11 02:23:52;;;;;;;14.25;12.57;;;16.30;99.90;;;;;;4916086;29;20083;-70
2022/08/11 02:26:24;;;;;;;22.55;14.63;;;16.30;99.90;;;;;;4931691;29;20083;-70
2022/08/11 02:29:13;;;;;;;15.80;13.98;;;16.20;99.90;;;;;;4931541;29;20469;-70
2022/08/11 02:34:43;;;;;;;16.67;14.68;;;16.20;99.90;;;;;;4914591;29;20056;-70
2022/08/11 02:37:24;;;;;;;21.00;15.25;;;16.20;99.90;;;;;;4916032;29;20058;-70
2022/08/11 02:39:59;;;;;;;19.60;15.90;;;16.20;99.90;;;;;;4914718;29;20067;-69
2022/08/11 02:42:45;;;;;;;16.13;14.65;;;16.20;99.90;;;;;;4914982;29;20114;-68
2022/08/11 02:45:11;;;;;;;18.15;15.95;;;16.20;99.90;;;;;;4915626;29;20066;-69
2022/08/11 02:49:52;;;;;;;26.15;14.00;;;16.20;99.90;;;;;;4915330;29;20403;-69
2022/08/11 02:50:57;;;;;;;17.63;15.70;;;16.10;99.90;;;;;;4923706;29;20060;-70
2022/08/11 02:53:35;;;;;;;20.42;16.52;;;16.10;99.90;;;;;;4911056;29;20066;-70
2022/08/11 02:56:26;;;;;;;20.98;16.05;;;16.10;99.90;;;;;;4915468;29;20090;-70
2022/08/11 03:01:57;;;;;;;18.83;16.40;;;16.00;99.90;;;;;;4928738;29;20098;-71
2022/08/11 03:04:34;;;;;;;20.40;15.73;;;16.00;99.90;;;;;;4915220;29;20047;-70
2022/08/11 03:07:14;;;;;;;16.25;14.32;;;16.00;99.90;;;;;;4914000;29;20059;-70
2022/08/11 03:09:54;;;;;;;16.40;13.88;;;16.00;99.90;;;;;;4914991;29;20763;-70
2022/08/11 03:18:25;;;;;;;15.57;14.00;;;16.00;99.90;;;;;;4930404;29;20055;-71
2022/08/11 03:21:11;;;;;;;16.38;14.20;;;16.00;99.90;;;;;;4930892;29;20051;-74
2022/08/11 03:24:10;;;;;;;15.55;13.40;;;16.00;99.90;;;;;;4931222;29;20048;-73
2022/08/11 03:27:00;;;;;;;14.75;13.25;;;15.90;99.90;;;;;;4933728;29;20375;-76
2022/08/11 03:29:34;;;;;;;14.38;12.55;;;15.90;99.90;;;;;;4930863;29;20078;-72
2022/08/11 03:32:28;;;;;;;20.55;14.88;;;15.90;99.90;;;;;;4913263;29;20059;-72
2022/08/11 03:35:00;;;;;;;15.25;13.77;;;15.90;99.90;;;;;;4918766;29;20082;-73
2022/08/11 03:37:54;;;;;;;14.05;12.60;;;15.90;99.90;;;;;;4921752;29;20093;-72
2022/08/11 03:44:02;;;;;;;15.82;14.23;;;15.80;99.90;;;;;;4932298;29;20048;-72
2022/08/11 03:47:17;;;;;;;16.83;15.05;;;15.70;99.90;;;;;;4917725;29;20047;-73
2022/08/11 03:50:07;;;;;;;17.35;15.00;;;15.80;99.90;;;;;;4913448;29;20126;-73
2022/08/11 03:52:51;;;;;;;16.35;14.70;;;15.70;99.90;;;;;;4912683;29;20055;-72
2022/08/11 03:55:40;;;;;;;17.38;15.55;;;15.70;99.90;;;;;;4913529;29;20514;-72
2022/08/11 03:58:30;;;;;;;16.35;14.73;;;15.60;99.90;;;;;;4915173;29;20052;-73
2022/08/11 04:01:34;;;;;;;15.60;14.07;;;15.70;99.90;;;;;;4929660;29;20126;-73
2022/08/11 04:04:00;;;;;;;16.70;14.80;;;15.60;99.90;;;;;;4929251;29;20056;-72
2022/08/11 04:06:37;;;;;;;13.98;12.52;;;15.60;99.90;;;;;;4909981;29;20055;-72
2022/08/11 04:09:45;;;;;;;17.02;14.25;;;15.60;99.90;;;;;;4913448;29;20058;-72
2022/08/11 04:12:29;;;;;;;15.07;13.60;;;15.60;99.90;;;;;;4919024;29;20115;-73
2022/08/11 04:18:26;;;;;;;19.38;16.35;;;15.50;99.90;;;;;;4908491;29;20059;-72
2022/08/11 04:21:11;;;;;;;15.18;13.75;;;15.40;99.90;;;;;;4939591;29;20051;-73
2022/08/11 04:24:03;;;;;;;14.68;13.07;;;15.50;99.90;;;;;;4924401;29;20094;-72
2022/08/11 04:26:36;;;;;;;15.68;14.05;;;15.50;99.90;;;;;;4929286;29;20040;-72
2022/08/11 04:29:24;;;;;;;15.13;13.07;;;15.50;99.90;;;;;;4922811;29;22808;-72
2022/08/11 04:32:27;;;;;;;14.55;13.20;;;15.50;99.90;;;;;;4919581;29;20090;-73
2022/08/11 04:35:11;;;;;;;13.07;11.90;;;15.50;99.90;;;;;;4907985;29;20058;-72
2022/08/11 04:37:40;;;;;;;11.85;10.77;;;15.50;99.90;;;;;;4935226;29;20059;-73
2022/08/11 04:41:13;;;;;;;14.00;12.75;;;15.50;99.90;;;;;;4913101;29;20044;-73
2022/08/11 04:44:06;;;;;;;14.77;13.25;;;15.50;99.90;;;;;;4836569;29;20050;-74
2022/08/11 04:47:02;;;;;;;19.70;15.13;;;15.50;99.90;;;;;;4928615;29;20048;-72
2022/08/11 05:03:02;;;;;;;22.55;20.23;;;15.70;99.90;;;;;;4915989;29;20056;-72
2022/08/11 05:06:05;;;;;;;18.70;16.65;;;15.70;99.90;;;;;;4900804;29;20062;-74
2022/08/11 05:09:02;;;;;;;19.23;17.02;;;15.80;99.90;;;;;;4915403;29;20043;-75
2022/08/11 05:11:30;;;;;;;21.25;19.05;;;15.90;99.90;;;;;;4920414;29;20151;-75
2022/08/11 05:34:53;;;;;;;19.33;17.33;;;16.70;99.90;;;;;;4914574;29;20043;-75
2022/08/11 05:37:28;;;;;;;21.05;18.42;;;16.80;99.90;;;;;;4919784;29;20048;-75
2022/08/11 05:56:57;;;;;;;26.27;23.65;;;17.00;99.90;;;;;;4914788;29;20066;-73
2022/08/11 05:59:24;;;;;;;24.27;21.70;;;16.90;99.90;;;;;;4933667;29;20052;-73
2022/08/11 06:01:50;;;;;;;24.73;21.50;;;17.00;99.90;;;;;;4914861;29;20048;-73
2022/08/11 06:04:20;;;;;;;26.30;21.65;;;17.00;99.90;;;;;;4915192;29;20846;-73
2022/08/11 06:06:59;;;;;;;27.98;21.45;;;17.10;99.90;;;;;;4915074;29;20044;-73
2022/08/11 06:09:33;;;;;;;26.55;19.45;;;17.10;99.90;;;;;;4912941;29;20058;-73
2022/08/11 06:12:03;;;;;;;26.08;23.35;;;17.10;99.90;;;;;;4918032;29;20127;-73
2022/08/11 06:14:30;;;;;;;24.77;22.17;;;17.20;99.90;;;;;;4935041;29;20653;-73
2022/08/11 06:16:58;;;;;;;24.42;21.67;;;17.20;99.90;;;;;;4917284;29;20056;-74
2022/08/11 06:19:38;;;;;;;25.85;22.52;;;17.20;99.90;;;;;;4934406;29;20050;-73
2022/08/11 06:22:06;;;;;;;30.33;21.52;;;17.30;99.90;;;;;;4930362;29;20391;-73
2022/08/11 06:24:34;;;;;;;28.98;21.10;;;17.40;99.90;;;;;;4915076;29;20083;-72
2022/08/11 06:27:02;;;;;;;30.33;22.85;;;17.40;99.90;;;;;;4914966;29;20066;-73
2022/08/11 06:29:29;;;;;;;23.52;20.98;;;17.50;99.90;;;;;;4916430;29;20052;-73
2022/08/11 06:32:01;;;;;;;24.02;20.63;;;17.50;99.90;;;;;;4919613;29;20469;-73
2022/08/11 06:35:01;;;;;;;27.02;18.30;;;17.60;99.90;;;;;;4929611;29;20185;-73
2022/08/11 06:38:00;;;;;;;21.73;17.92;;;17.70;99.90;;;;;;4915530;29;20578;-76
2022/08/11 06:40:30;;;;;;;33.40;19.42;;;17.80;99.90;;;;;;4900778;29;20056;-77
2022/08/11 06:43:17;;;;;;;114.90;27.33;;;17.90;99.90;;;;;;4915421;29;20079;-80
2022/08/11 06:45:56;;;;;;;37.55;20.02;;;18.10;99.90;;;;;;4910439;29;20039;-74
2022/08/11 06:48:23;;;;;;;18.23;16.42;;;18.20;99.90;;;;;;4930489;29;20098;-75
2022/08/11 06:53:38;;;;;;;18.55;16.63;;;18.40;99.90;;;;;;4915642;29;20075;-74
2022/08/11 07:01:52;;;;;;;297.42;49.67;;;19.00;99.90;;;;;;4929861;29;20048;-74
2022/08/11 07:04:52;;;;;;;15.43;13.57;;;19.40;99.90;;;;;;4912397;29;20047;-74
2022/08/11 07:16:06;;;;;;;14.90;12.40;;;20.80;99.90;;;;;;4919115;29;20126;-74
2022/08/11 07:30:07;;;;;;;38.00;12.02;;;22.40;99.90;;;;;;4921014;29;20055;-74
2022/08/11 07:32:43;;;;;;;11.25;10.18;;;22.70;99.90;;;;;;4919561;29;20164;-74
2022/08/11 07:35:16;;;;;;;10.70;9.50;;;22.90;99.90;;;;;;4917011;29;20142;-74
2022/08/11 07:37:47;;;;;;;12.07;10.45;;;23.30;99.90;;;;;;4910514;29;20106;-74
2022/08/11 07:40:18;;;;;;;9.07;8.27;;;23.60;99.90;;;;;;4912330;29;20044;-74
2022/08/11 07:42:45;;;;;;;9.75;8.85;;;23.90;99.90;;;;;;4922682;29;20048;-73
2022/08/11 07:53:29;;;;;;;8.63;7.47;;;24.80;99.90;;;;;;4929807;29;21480;-74
2022/08/11 07:55:56;;;;;;;10.27;7.85;;;24.90;99.90;;;;;;4929962;29;20087;-74
2022/08/11 08:17:51;;;;;;;7.25;6.60;;;26.30;99.90;;;;;;4914987;29;20454;-74
2022/08/11 08:20:19;;;;;;;11.23;7.13;;;26.40;99.90;;;;;;4917670;29;20142;-74
2022/08/11 08:22:57;;;;;;;9.70;6.22;;;26.40;99.90;;;;;;4928737;29;20159;-74
2022/08/11 08:25:26;;;;;;;7.78;6.85;;;26.70;96.70;;;;;;4918909;29;20047;-76
2022/08/11 08:27:54;;;;;;;7.78;6.82;;;26.80;99.90;;;;;;4913678;29;20052;-74
2022/08/11 08:33:04;;;;;;;6.78;4.75;;;27.10;81.50;;;;;;4923898;29;20013;-74
2022/08/11 08:35:30;;;;;;;7.50;4.88;;;27.10;95.10;;;;;;4915552;29;20051;-75
2022/08/11 08:37:59;;;;;;;4.63;4.30;;;27.20;90.60;;;;;;4919925;29;20059;-75
2022/08/11 08:40:26;;;;;;;4.00;3.70;;;27.30;79.30;;;;;;4925329;29;20138;-75
2022/08/11 08:42:57;;;;;;;4.43;3.90;;;27.50;77.30;;;;;;4936523;29;20154;-74
2022/08/11 08:45:26;;;;;;;5.55;4.50;;;27.60;70.90;;;;;;4936185;29;20078;-74
2022/08/11 08:48:00;;;;;;;5.50;4.25;;;27.70;71.30;;;;;;4918013;29;20091;-75
2022/08/11 08:53:31;;;;;;;5.50;3.88;;;28.00;69.90;;;;;;4935901;29;20059;-75
2022/08/11 08:55:59;;;;;;;7.57;3.83;;;28.10;68.10;;;;;;4923890;29;20106;-76
2022/08/11 08:58:25;;;;;;;7.45;5.38;;;28.20;67.20;;;;;;4915967;29;20508;-76
2022/08/11 09:00:55;;;;;;;5.72;4.07;;;28.20;65.60;;;;;;4920966;29;20050;-76
2022/08/11 09:03:21;;;;;;;6.97;4.28;;;28.20;62.70;;;;;;4931124;29;20083;-76
2022/08/11 09:05:48;;;;;;;5.95;3.42;;;28.40;61.40;;;;;;4920142;29;20047;-75
2022/08/11 09:08:18;;;;;;;4.85;3.88;;;28.30;60.00;;;;;;4917500;29;20036;-75
2022/08/11 09:11:48;;;;;;;7.40;3.50;;;28.50;59.00;;;;;;4941235;29;20051;-75
2022/08/11 09:13:34;;;;;;;5.00;3.30;;;28.60;58.50;;;;;;4920284;29;20114;-74
2022/08/11 09:16:01;;;;;;;6.45;3.67;;;28.80;57.10;;;;;;4928658;28;20460;-75
2022/08/11 09:18:27;;;;;;;7.43;3.78;;;28.90;57.80;;;;;;4936914;29;20050;-75
2022/08/11 09:20:53;;;;;;;9.27;3.50;;;29.00;56.90;;;;;;4935877;29;20075;-76
2022/08/11 09:28:49;;;;;;;4.47;3.47;;;29.20;54.60;;;;;;4948703;29;20137;-77
2022/08/11 09:31:15;;;;;;;6.10;3.30;;;29.30;54.40;;;;;;4918249;29;20056;-76
2022/08/11 09:33:43;;;;;;;;;;;29.40;53.90;;;;;;4923167;29;20135;-77
2022/08/11 09:41:45;;;;;;;4.40;3.65;;;29.20;52.40;;;;;;4919572;29;20187;-77
2022/08/11 09:46:58;;;;;;;6.13;3.30;;;29.50;52.50;;;;;;4919578;29;20066;-77
2022/08/11 09:49:25;;;;;;;6.82;3.80;;;29.80;52.00;;;;;;4936554;29;20058;-76
2022/08/11 09:51:52;;;;;;;6.38;3.78;;;29.80;51.00;;;;;;4915652;29;20047;-77
2022/08/11 09:54:18;;;;;;;3.92;3.63;;;29.60;50.70;;;;;;4927557;29;20117;-77
2022/08/11 09:59:30;;;;;;;4.25;3.92;;;29.60;50.20;;;;;;4922546;29;20114;-77
2022/08/11 10:02:00;;;;;;;;;;;29.80;49.60;;;;;;4934457;29;20056;-76
2022/08/11 10:04:33;;;;;;;6.25;3.45;;;30.00;47.40;;;;;;4936171;29;19942;-77
2022/08/11 10:07:05;;;;;;;4.35;3.65;;;30.00;48.20;;;;;;4917023;29;20078;-77
2022/08/11 10:09:46;;;;;;;6.05;4.05;;;30.20;48.00;;;;;;4934021;29;20102;-76
2022/08/11 10:12:23;;;;;;;5.30;3.20;;;30.10;46.80;;;;;;4920107;29;20052;-77
2022/08/11 10:15:32;;;;;;;8.38;4.50;;;30.20;48.20;;;;;;4939088;29;20054;-77
2022/08/11 10:20:37;;;;;;;3.40;3.10;;;30.40;47.10;;;;;;4933495;29;20093;-76
2022/08/11 10:28:35;;;;;;;5.03;4.32;;;30.30;47.00;;;;;;4930927;29;20417;-76
2022/08/11 10:34:02;;;;;;;4.82;3.58;;;30.60;45.70;;;;;;4933589;29;20527;-75
2022/08/11 10:36:49;;;;;;;5.55;3.92;;;30.50;45.70;;;;;;4921473;29;20059;-77
2022/08/11 10:39:19;;;;;;;3.92;3.00;;;30.40;44.90;;;;;;4930219;29;20058;-77
2022/08/11 10:44:38;;;;;;;4.15;3.75;;;30.50;46.10;;;;;;4904839;29;20187;-76
2022/08/11 11:00:57;;;;;;;6.63;3.83;;;31.00;44.90;;;;;;4931891;29;20398;-75
2022/08/11 11:03:28;;;;;;;4.05;3.45;;;30.90;44.50;;;;;;4912158;29;20054;-76
2022/08/11 11:06:24;;;;;;;3.75;2.92;;;30.80;43.70;;;;;;4915659;29;20119;-76
2022/08/11 11:08:56;;;;;;;4.43;4.03;;;30.90;43.20;;;;;;4914337;29;20059;-74
2022/08/11 11:19:38;;;;;;;4.28;3.42;;;31.30;44.10;;;;;;4931457;29;20512;-76
2022/08/11 11:24:51;;;;;;;4.03;3.42;;;31.30;42.50;;;;;;4910268;29;20631;-75
2022/08/11 11:27:32;;;;;;;5.38;3.90;;;31.40;43.10;;;;;;4910654;29;20048;-75
2022/08/11 11:30:00;;;;;;;6.60;4.10;;;31.60;42.80;;;;;;4930261;29;20056;-75
2022/08/11 11:32:54;;;;;;;5.65;3.55;;;31.50;43.60;;;;;;4913150;29;20134;-76
2022/08/11 11:35:34;;;;;;;13.20;3.78;;;31.70;44.50;;;;;;4915621;29;20052;-76
2022/08/11 11:38:00;;;;;;;6.43;3.65;;;31.80;42.50;;;;;;4917456;29;20110;-75
2022/08/11 11:40:27;;;;;;;3.63;3.42;;;31.60;42.80;;;;;;4915866;29;20039;-75
2022/08/11 11:42:55;;;;;;;4.90;3.55;;;31.60;42.70;;;;;;4914270;29;20063;-75
2022/08/11 11:45:24;;;;;;;4.40;3.28;;;31.80;43.20;;;;;;4911852;29;20067;-75
2022/08/11 11:47:52;;;;;;;4.35;3.90;;;31.80;42.40;;;;;;4914183;29;20125;-76
2022/08/11 11:50:35;;;;;;;4.80;4.07;;;31.60;42.20;;;;;;4931344;29;20539;-76
2022/08/11 11:53:08;;;;;;;6.13;3.70;;;31.60;41.80;;;;;;4930617;29;20804;-76
2022/08/11 11:55:34;;;;;;;11.57;4.43;;;31.90;42.20;;;;;;4921586;29;20118;-75
2022/08/11 12:03:34;;;;;;;4.10;3.22;;;31.70;42.90;;;;;;4912209;29;20117;-75
2022/08/11 12:06:01;;;;;;;5.43;3.50;;;31.50;42.30;;;;;;4905977;29;20654;-76
2022/08/11 12:08:27;;;;;;;6.65;4.53;;;31.40;42.40;;;;;;4930327;29;20555;-75
2022/08/11 12:13:46;;;;;;;3.85;3.42;;;31.30;43.00;;;;;;4915821;29;20059;-74
2022/08/11 12:16:14;;;;;;;6.18;4.03;;;31.30;43.40;;;;;;4917354;29;20058;-75
2022/08/11 12:18:41;;;;;;;6.55;4.25;;;31.40;42.80;;;;;;4916026;29;20047;-74
2022/08/11 12:21:09;;;;;;;3.88;3.45;;;31.30;42.40;;;;;;4914041;29;20090;-75
2022/08/11 12:29:11;;;;;;;4.57;3.97;;;31.30;42.20;;;;;;4929321;29;20056;-74
2022/08/11 12:31:39;;;;;;;7.40;3.83;;;31.60;42.00;;;;;;4925085;29;20524;-73
2022/08/11 12:34:08;;;;;;;4.55;3.78;;;31.60;41.30;;;;;;4929977;29;20058;-72
2022/08/11 12:36:47;;;;;;;5.25;3.60;;;31.60;40.90;;;;;;4912233;29;20048;-73
2022/08/11 12:39:19;;;;;;;7.80;4.18;;;31.60;40.50;;;;;;4913784;29;20099;-73
2022/08/11 12:47:19;;;;;;;4.25;3.90;;;31.40;41.40;;;;;;4916201;29;20066;-75
2022/08/11 12:52:42;;;;;;;5.47;4.60;;;31.50;41.50;;;;;;4927080;29;20053;-74
2022/08/11 12:58:14;;;;;;;4.45;3.80;;;31.50;42.20;;;;;;4924899;29;20060;-72
2022/08/11 12:58:16;;;;;;;9.77;4.30;;;31.60;42.20;;;;;;4912469;29;20788;-74
2022/08/11 13:06:13;;;;;;;3.65;3.35;;;31.60;41.90;;;;;;4907222;29;20062;-74
2022/08/11 13:08:40;;;;;;;4.57;3.88;;;31.40;42.20;;;;;;4912592;29;20390;-75
2022/08/11 13:13:55;;;;;;;8.52;3.55;;;31.20;42.10;;;;;;4910613;29;20055;-75
2022/08/11 13:16:23;;;;;;;3.92;3.63;;;31.40;42.70;;;;;;4944219;29;20494;-75
2022/08/11 13:18:50;;;;;;;5.25;4.50;;;31.60;42.40;;;;;;4932732;29;20058;-74
2022/08/11 13:21:17;;;;;;;4.53;4.22;;;31.60;41.90;;;;;;4914862;29;20056;-76
2022/08/11 13:23:45;;;;;;;6.85;4.32;;;31.60;42.50;;;;;;4915831;29;20047;-75
2022/08/11 13:26:12;;;;;;;4.40;3.67;;;31.60;42.40;;;;;;4915147;29;20052;-74
2022/08/11 13:28:39;;;;;;;3.95;3.65;;;31.30;42.80;;;;;;4915180;29;20497;-75
2022/08/11 13:31:11;;;;;;;4.65;3.88;;;31.40;42.70;;;;;;4916266;29;20064;-74
2022/08/11 13:33:42;;;;;;;4.85;3.92;;;31.50;43.30;;;;;;4920545;29;20466;-75
2022/08/11 13:36:08;;;;;;;6.13;3.97;;;31.50;41.90;;;;;;4918937;29;20420;-75
2022/08/11 13:38:35;;;;;;;5.60;4.35;;;31.40;42.30;;;;;;4915954;29;20047;-74
2022/08/11 13:41:36;;;;;;;4.32;3.97;;;31.20;42.40;;;;;;4918875;29;20166;-75
2022/08/11 13:43:49;;;;;;;6.10;4.47;;;31.20;42.10;;;;;;4917041;29;20745;-74
2022/08/11 13:46:19;;;;;;;4.85;3.92;;;31.20;42.10;;;;;;4940908;29;20056;-76
2022/08/11 13:48:46;;;;;;;3.40;3.20;;;31.00;41.90;;;;;;4914243;29;20557;-75
2022/08/11 13:51:32;;;;;;;4.57;3.35;;;31.00;42.70;;;;;;4902548;29;20056;-74
2022/08/11 13:54:10;;;;;;;3.60;3.15;;;31.20;42.60;;;;;;4925515;29;20064;-75
2022/08/11 13:56:43;;;;;;;3.58;3.17;;;31.00;41.90;;;;;;4916515;29;20134;-74
2022/08/11 13:59:09;;;;;;;3.25;2.97;;;31.00;41.20;;;;;;4916274;29;20115;-74
2022/08/11 14:01:46;;;;;;;3.85;3.55;;;31.20;41.70;;;;;;4915852;29;20055;-73
2022/08/11 14:04:32;;;;;;;5.45;3.47;;;31.20;41.80;;;;;;4932314;29;20091;-74
2022/08/11 14:07:01;;;;;;;3.13;2.90;;;31.30;42.30;;;;;;4927788;29;20098;-74
2022/08/11 14:09:35;;;;;;;7.82;4.55;;;31.30;42.40;;;;;;4922485;29;20303;-74
2022/08/11 14:14:59;;;;;;;4.70;3.60;;;31.10;41.80;;;;;;4914770;29;20739;-73
2022/08/11 14:17:28;;;;;;;5.20;3.00;;;31.00;42.60;;;;;;4913856;29;20146;-73
2022/08/11 14:19:54;;;;;;;4.18;3.80;;;31.10;42.90;;;;;;4912918;29;20051;-76
2022/08/11 14:22:21;;;;;;;3.45;2.80;;;31.00;43.20;;;;;;4916991;29;20171;-75
2022/08/11 14:24:50;;;;;;;3.80;3.50;;;31.00;42.00;;;;;;4938403;29;20043;-75
2022/08/11 14:27:17;;;;;;;4.13;3.10;;;31.00;41.80;;;;;;4916907;29;20071;-73
2022/08/11 14:29:44;;;;;;;3.85;3.13;;;31.00;42.10;;;;;;4926134;29;20055;-73
2022/08/11 14:32:12;;;;;;;3.42;3.00;;;31.10;42.50;;;;;;4915533;29;20059;-73
2022/08/11 14:34:43;;;;;;;2.72;2.53;;;31.10;42.00;;;;;;4914241;29;20059;-73
2022/08/11 14:37:12;;;;;;;13.75;3.88;;;31.20;41.50;;;;;;4919185;29;20097;-75
2022/08/11 14:39:48;;;;;;;2.78;2.58;;;30.90;41.60;;;;;;4926408;29;20083;-75
2022/08/11 14:48:02;;;;;;;4.03;3.25;;;30.60;41.50;;;;;;4932072;29;20051;-74
2022/08/11 14:50:32;;;;;;;4.28;3.42;;;30.60;41.50;;;;;;4927885;29;20056;-75
2022/08/11 14:53:07;;;;;;;5.25;3.42;;;30.60;41.90;;;;;;4921439;29;20144;-74
2022/08/11 14:58:27;;;;;;;3.83;3.10;;;30.60;41.40;;;;;;4930683;29;20063;-74
2022/08/11 15:00:56;;;;;;;3.63;2.90;;;30.50;41.80;;;;;;4931180;29;20051;-74
2022/08/11 15:03:23;;;;;;;3.63;3.33;;;30.50;41.80;;;;;;4934331;29;20048;-74
2022/08/11 15:05:55;;;;;;;4.75;3.13;;;30.50;42.70;;;;;;4918793;29;20058;-74
2022/08/11 15:08:53;;;;;;;4.68;4.18;;;30.40;42.40;;;;;;4906697;29;20044;-73
2022/08/11 15:14:01;;;;;;;;;;;30.40;43.50;;;;;;4931539;29;20421;-76
2022/08/11 15:19:13;;;;;;;4.20;3.38;;;30.40;43.00;;;;;;4926987;29;20052;-74
2022/08/11 15:24:23;;;;;;;5.28;3.30;;;30.30;43.70;;;;;;4933597;29;19937;-75
2022/08/11 15:37:57;;;;;;;4.70;4.30;;;30.30;44.20;;;;;;4921422;29;20065;-74
2022/08/11 15:46:19;;;;;;;3.30;3.10;;;30.20;44.30;;;;;;4913573;29;20572;-76
2022/08/11 15:49:01;;;;;;;5.25;3.58;;;30.20;44.60;;;;;;4912040;29;20099;-75
2022/08/11 15:51:35;;;;;;;8.80;3.38;;;30.00;42.80;;;;;;4912646;29;20086;-73
2022/08/11 15:54:10;;;;;;;4.93;3.42;;;30.00;44.80;;;;;;4930033;29;20058;-73
2022/08/11 15:56:43;;;;;;;3.53;3.10;;;30.00;44.60;;;;;;4914265;29;20053;-73
2022/08/11 16:04:48;;;;;;;3.67;3.35;;;29.80;44.90;;;;;;4929298;29;20060;-73
2022/08/11 16:07:25;;;;;;;7.07;4.20;;;29.70;44.90;;;;;;4925121;29;20130;-75
2022/08/11 16:09:58;;;;;;;6.18;3.00;;;29.70;45.20;;;;;;4913454;29;20565;-73
2022/08/11 16:12:27;;;;;;;3.83;2.80;;;29.70;45.00;;;;;;4913092;29;20070;-72
2022/08/11 16:17:52;;;;;;;4.75;3.53;;;29.60;45.60;;;;;;4909938;29;20556;-73
2022/08/11 16:20:24;;;;;;;6.18;3.47;;;29.60;45.50;;;;;;4911196;29;20557;-72
2022/08/11 16:22:53;;;;;;;4.68;3.88;;;29.50;45.40;;;;;;4912503;29;20064;-73
2022/08/11 16:25:22;;;;;;;5.32;3.75;;;29.50;45.40;;;;;;4911421;29;20051;-74
2022/08/11 16:28:04;;;;;;;5.25;3.58;;;29.50;45.40;;;;;;4913433;29;20047;-70
2022/08/11 16:30:33;;;;;;;3.80;3.50;;;29.40;46.50;;;;;;4913413;29;20048;-70
2022/08/11 16:33:03;;;;;;;4.50;3.42;;;29.40;46.10;;;;;;4913068;29;20048;-69
2022/08/11 16:38:35;;;;;;;4.03;3.70;;;29.30;45.30;;;;;;4911741;29;20056;-69
2022/08/11 16:41:11;;;;;;;4.85;4.32;;;29.30;45.80;;;;;;4911585;29;20417;-69
2022/08/11 16:49:30;;;;;;;3.67;3.47;;;29.10;46.40;;;;;;4917083;29;20513;-70
2022/08/11 16:51:57;;;;;;;3.58;3.28;;;29.10;46.80;;;;;;4934005;29;20051;-70
2022/08/11 16:54:22;;;;;;;4.43;3.80;;;28.90;46.80;;;;;;4916953;29;20043;-70
2022/08/11 16:56:50;;;;;;;4.30;3.90;;;28.90;46.70;;;;;;4915382;29;20094;-70
2022/08/11 16:59:24;;;;;;;5.47;3.97;;;28.80;46.40;;;;;;4916771;29;20055;-69
2022/08/11 17:01:58;;;;;;;7.25;3.85;;;28.70;46.50;;;;;;4917433;29;20118;-69
2022/08/11 17:13:19;;;;;;;4.20;3.80;;;28.50;47.10;;;;;;4909862;29;20056;-72
2022/08/11 17:16:05;;;;;;;6.57;3.75;;;28.40;47.10;;;;;;4934419;29;20058;-72
2022/08/11 17:18:52;;;;;;;4.82;4.10;;;28.40;47.60;;;;;;4933499;29;20071;-71
2022/08/11 17:21:22;;;;;;;4.43;3.95;;;28.40;47.70;;;;;;4933536;29;20635;-71
2022/08/11 17:23:53;;;;;;;4.78;4.38;;;28.40;47.90;;;;;;4933445;29;20056;-72
2022/08/11 17:26:54;;;;;;;4.80;3.70;;;28.40;47.50;;;;;;4915571;29;20816;-70
2022/08/11 17:29:39;;;;;;;4.78;4.38;;;28.30;48.00;;;;;;4909769;29;20048;-70
2022/08/11 17:37:42;;;;;;;4.53;4.13;;;28.10;49.40;;;;;;4918908;29;20048;-70
2022/08/11 17:40:12;;;;;;;4.55;4.00;;;28.00;49.60;;;;;;4911871;29;20518;-70
2022/08/11 17:48:24;;;;;;;8.73;4.03;;;27.80;51.00;;;;;;4913349;29;20063;-70
2022/08/11 17:51:11;;;;;;;7.43;5.50;;;27.70;51.80;;;;;;4928679;29;20099;-71
2022/08/11 18:04:49;;;;;;;6.13;4.53;;;27.20;53.90;;;;;;4912835;29;20084;-70
